Time;durP1;ratioP1;P1;durP2;ratioP2;P2;SDS_P1;SDS_P2;PMS_P1;PMS_P2;Temp;Humidity;BMP_temperature;BMP_pressure;BME280_temperature;BME280_humidity;BME280_pressure;Samples;Min_cycle;Max_cycle;Signal;HPM_P1;HPM_P2
2021/11/15 00:00:10;;;;;;;;;37.50;29.75;;;;;11.38;65.17;101835.84;4978661;28;45271;-48
2021/11/15 00:02:36;;;;;;;;;33.00;32.25;;;;;11.37;65.07;101838.44;4978582;28;45429;-49
2021/11/15 00:05:01;;;;;;;;;31.75;29.75;;;;;11.34;65.17;101831.44;4977285;28;45410;-49
2021/11/15 00:07:27;;;;;;;;;34.75;31.50;;;;;11.33;65.25;101837.59;4977349;28;45461;-51
2021/11/15 00:09:52;;;;;;;;;38.00;32.25;;;;;11.31;65.12;101844.59;4978428;28;45938;-51
2021/11/15 00:12:17;;;;;;;;;34.75;30.50;;;;;11.29;64.85;101841.06;4976520;28;45370;-50
2021/11/15 00:14:43;;;;;;;;;30.75;26.75;;;;;11.27;65.04;101840.22;4978539;28;45223;-51
2021/11/15 00:17:08;;;;;;;;;35.00;31.75;;;;;11.26;65.26;101834.94;4978568;28;45477;-52
2021/11/15 00:19:34;;;;;;;;;36.50;33.50;;;;;11.24;65.12;101836.69;4977129;28;46307;-50
2021/11/15 00:21:59;;;;;;;;;40.50;34.50;;;;;11.22;65.21;101834.94;4978361;28;45190;-49
2021/11/15 00:24:25;;;;;;;;;37.75;32.25;;;;;11.19;65.15;101840.22;4978670;28;45332;-48
2021/11/15 00:26:50;;;;;;;;;35.00;32.25;;;;;11.18;65.12;101840.19;4978128;28;45428;-52
2021/11/15 00:29:16;;;;;;;;;36.00;33.75;;;;;11.15;65.30;101834.94;4976845;28;47061;-47
2021/11/15 00:31:44;;;;;;;;;42.25;36.50;;;;;11.13;65.17;101839.31;4978236;28;45300;-51
2021/11/15 00:34:09;;;;;;;;;36.00;32.00;;;;;11.10;65.33;101834.06;4978490;28;45370;-49
2021/11/15 00:36:35;;;;;;;;;37.25;31.25;;;;;11.09;65.01;101843.69;4978122;28;45493;-51
2021/11/15 00:39:00;;;;;;;;;31.50;27.75;;;;;11.05;65.23;101842.81;4978291;28;45355;-50
2021/11/15 00:41:25;;;;;;;;;39.00;34.00;;;;;11.04;65.10;101840.19;4977923;28;45315;-51
2021/11/15 00:43:51;;;;;;;;;37.00;32.25;;;;;11.01;65.31;101835.78;4978406;28;45235;-50
2021/11/15 00:46:16;;;;;;;;;32.00;29.75;;;;;10.99;65.13;101841.94;4976899;28;45879;-51
2021/11/15 00:48:41;;;;;;;;;30.50;27.00;;;;;10.97;65.02;101836.66;4998371;28;46032;-48
2021/11/15 00:51:07;;;;;;;;;35.50;32.50;;;;;10.94;65.17;101839.28;4998259;27;45357;-49
2021/11/15 00:53:32;;;;;;;;;33.75;28.50;;;;;10.93;65.09;101841.91;4978260;28;45340;-51
2021/11/15 00:55:58;;;;;;;;;37.75;33.50;;;;;10.88;65.19;101834.91;4977821;28;45398;-47
2021/11/15 00:58:24;;;;;;;;;41.75;32.75;;;;;10.87;65.15;101842.78;4976645;28;47417;-46
2021/11/15 01:00:50;;;;;;;;;34.75;31.75;;;;;10.86;65.03;101846.28;4977507;28;45268;-47
2021/11/15 01:03:16;;;;;;;;;34.25;32.00;;;;;10.83;65.13;101841.00;4978263;28;45349;-48
2021/11/15 01:05:47;;;;;;;;;36.25;31.00;;;;;10.81;65.40;101840.16;4977778;28;45365;-48
2021/11/15 01:08:15;;;;;;;;;38.50;33.75;;;;;10.80;65.13;101846.28;4961036;28;45426;-50
2021/11/15 01:10:40;;;;;;;;;15.25;12.25;;;;;10.77;65.13;101841.00;4977592;27;45248;-52
2021/11/15 01:13:06;;;;;;;;;39.25;33.50;;;;;10.75;65.27;101850.66;4977843;28;45212;-48
2021/11/15 01:15:32;;;;;;;;;36.75;32.50;;;;;10.73;65.09;101848.88;4977703;28;45449;-50
2021/11/15 01:17:58;;;;;;;;;34.50;32.50;;;;;10.71;65.17;101847.13;4966881;28;46288;-49
2021/11/15 01:20:28;;;;;;;;;36.25;31.75;;;;;10.68;65.37;101837.47;4958041;28;45473;-51
2021/11/15 01:22:54;;;;;;;;;40.75;32.75;;;;;10.63;65.33;101838.31;4958559;28;45394;-49
2021/11/15 01:25:19;;;;;;;;;34.25;32.25;;;;;10.64;65.20;101837.47;4956676;28;45494;-51
2021/11/15 01:27:45;;;;;;;;;34.75;28.50;;;;;10.59;65.34;101834.84;4958128;28;45933;-50
2021/11/15 01:30:13;;;;;;;;;28.00;27.25;;;;;10.59;65.32;101840.09;4957954;28;45201;-48
2021/11/15 01:32:40;;;;;;;;;34.75;32.00;;;;;10.57;65.15;101842.69;4958390;28;45383;-48
2021/11/15 01:35:06;;;;;;;;;32.25;29.75;;;;;10.56;65.27;101843.59;4957787;28;45475;-47
2021/11/15 01:37:32;;;;;;;;;34.25;31.00;;;;;10.53;65.25;101840.06;4957880;28;46300;-47
2021/11/15 01:39:57;;;;;;;;;33.50;31.25;;;;;10.49;65.05;101833.91;4957681;28;45389;-48
2021/11/15 01:42:23;;;;;;;;;32.25;27.75;;;;;10.51;65.46;101841.81;4958241;28;45238;-48
2021/11/15 01:44:48;;;;;;;;;34.75;29.50;;;;;10.49;65.18;101844.44;4957765;28;45189;-47
2021/11/15 01:47:14;;;;;;;;;34.75;31.50;;;;;10.47;65.30;101837.41;4956421;28;48295;-49
2021/11/15 01:49:40;;;;;;;;;32.50;31.50;;;;;10.45;65.34;101844.41;5025278;28;45526;-52
2021/11/15 01:52:06;;;;;;;;;34.75;30.00;;;;;10.43;65.19;101846.13;4977432;28;45287;-51
2021/11/15 01:54:31;;;;;;;;;30.25;27.75;;;;;10.42;65.12;101850.53;4977198;28;45585;-50
2021/11/15 01:56:57;;;;;;;;;33.00;30.25;;;;;10.42;65.04;101844.41;4976884;28;46011;-49
2021/11/15 01:59:22;;;;;;;;;30.50;28.25;;;;;10.39;65.32;101847.91;4977130;28;45239;-49
2021/11/15 02:01:48;;;;;;;;;39.75;30.25;;;;;10.36;65.18;101843.53;4977252;28;45583;-51
2021/11/15 02:04:14;;;;;;;;;35.50;32.00;;;;;10.35;65.18;101848.72;4976961;28;45552;-47
2021/11/15 02:06:40;;;;;;;;;36.25;31.75;;;;;10.34;65.31;101850.47;4976940;28;46049;-51
2021/11/15 02:09:06;;;;;;;;;31.50;29.75;;;;;10.33;65.29;101853.09;4976774;28;45378;-47
2021/11/15 02:11:34;;;;;;;;;36.50;32.75;;;;;10.31;65.14;101857.47;4976912;28;45299;-51
2021/11/15 02:14:01;;;;;;;;;37.50;31.50;;;;;10.30;65.33;101855.69;4975333;28;45645;-50
2021/11/15 02:16:27;;;;;;;;;31.25;29.75;;;;;10.27;65.40;101846.06;4976886;28;45344;-51
2021/11/15 02:18:53;;;;;;;;;36.00;33.00;;;;;10.26;65.08;101854.78;4976649;28;45285;-51
2021/11/15 02:21:18;;;;;;;;;36.75;32.00;;;;;10.24;65.25;101853.94;4976991;28;45506;-46
2021/11/15 02:23:45;;;;;;;;;3.50;2.00;;;;;10.24;65.11;101856.56;4958870;28;45475;-50
2021/11/15 02:26:16;;;;;;;;;33.00;28.25;;;;;10.21;65.20;101852.16;4957109;28;45417;-50
2021/11/15 02:28:45;;;;;;;;;38.00;32.50;;;;;10.19;65.21;101848.63;4957014;28;45447;-50
2021/11/15 02:31:14;;;;;;;;;35.25;31.75;;;;;10.18;65.25;101846.03;4957385;28;45319;-52
2021/11/15 02:33:39;;;;;;;;;41.50;32.75;;;;;10.13;65.23;101839.88;4957060;28;45513;-50
2021/11/15 02:36:07;;;;;;;;;32.50;30.75;;;;;10.14;65.24;101844.22;4958813;28;46311;-48
2021/11/15 02:38:33;;;;;;;;;37.25;33.25;;;;;10.13;65.13;101842.50;4959033;28;45293;-49
2021/11/15 02:40:59;;;;;;;;;41.50;33.00;;;;;10.13;65.09;101847.75;4960067;28;45377;-48
2021/11/15 02:43:24;;;;;;;;;31.25;28.00;;;;;10.07;65.19;101832.81;4959948;28;45318;-50
2021/11/15 02:45:51;;;;;;;;;36.50;32.75;;;;;10.09;65.06;101834.56;4960071;28;46190;-46
2021/11/15 02:48:22;;;;;;;;;43.25;35.00;;;;;10.07;65.07;101835.44;4976368;28;45406;-50
2021/11/15 02:50:48;;;;;;;;;42.25;33.75;;;;;10.03;65.01;101836.31;5013263;27;45272;-48
2021/11/15 02:53:14;;;;;;;;;37.25;34.75;;;;;10.03;65.15;101831.91;4979373;28;45326;-49
2021/11/15 02:55:43;;;;;;;;;34.75;30.00;;;;;10.02;65.08;101842.41;4979111;28;46349;-50
2021/11/15 02:58:09;;;;;;;;;39.25;32.50;;;;;10.00;65.24;101838.91;4979313;28;45198;-48
2021/11/15 03:00:39;;;;;;;;;35.75;32.00;;;;;10.00;65.20;101846.78;4979376;28;45319;-51
2021/11/15 03:03:06;;;;;;;;;39.75;35.00;;;;;9.96;65.14;101851.16;4979521;28;45248;-48
2021/11/15 03:05:35;;;;;;;;;35.50;32.50;;;;;9.97;65.15;101852.03;4979219;28;46151;-48
2021/11/15 03:08:02;;;;;;;;;39.50;34.75;;;;;9.95;65.13;101857.28;4979302;27;45198;-50
2021/11/15 03:10:28;;;;;;;;;42.00;33.00;;;;;9.93;65.27;101851.13;4979096;28;45279;-49
2021/11/15 03:12:56;;;;;;;;;43.00;32.50;;;;;9.90;65.22;101848.50;4979259;28;45410;-52
2021/11/15 03:15:30;;;;;;;;;41.50;33.75;;;;;9.89;65.12;101851.97;4979115;28;46272;-49
2021/11/15 03:18:10;;;;;;;;;36.75;34.00;;;;;9.89;65.41;101857.22;4979278;28;45334;-48
2021/11/15 03:20:43;;;;;;;;;41.00;30.00;;;;;9.86;65.17;101854.56;4978089;28;45280;-51
2021/11/15 03:23:12;;;;;;;;;41.75;35.50;;;;;9.85;65.47;101852.81;4979234;28;45250;-48
2021/11/15 03:25:38;;;;;;;;;45.00;36.00;;;;;9.85;65.36;101848.44;4978711;28;46261;-47
2021/11/15 03:28:05;;;;;;;;;36.75;33.00;;;;;9.84;65.43;101844.06;4978946;28;45358;-50
2021/11/15 03:30:30;;;;;;;;;38.00;33.00;;;;;9.86;65.17;101841.44;4977906;28;45329;-48
2021/11/15 03:32:56;;;;;;;;;38.75;33.50;;;;;9.86;65.22;101849.31;4979048;28;45332;-49
2021/11/15 03:35:22;;;;;;;;;41.50;35.25;;;;;9.84;65.57;101848.44;4978906;28;46000;-49
2021/11/15 03:37:49;;;;;;;;;43.75;34.00;;;;;9.84;65.40;101854.56;4979161;28;45470;-49
2021/11/15 03:40:23;;;;;;;;;43.00;35.25;;;;;9.85;65.23;101856.31;4978702;28;45165;-49
2021/11/15 03:42:52;;;;;;;;;48.00;36.75;;;;;9.81;65.32;101851.03;4979045;28;45227;-48
2021/11/15 03:45:18;;;;;;;;;42.00;35.00;;;;;9.83;65.39;101849.31;4978705;28;45328;-49
2021/11/15 03:47:45;;;;;;;;;44.00;36.25;;;;;9.83;65.23;101851.94;4968788;28;45335;-52
2021/11/15 03:50:10;;;;;;;;;44.75;35.00;;;;;9.82;65.13;101852.81;5029598;28;45229;-51
2021/11/15 03:52:38;;;;;;;;;49.50;38.75;;;;;9.83;65.51;101855.44;4978988;28;45542;-51
2021/11/15 03:55:05;;;;;;;;;43.75;36.75;;;;;9.82;65.49;101858.91;4978607;28;45378;-51
2021/11/15 03:57:31;;;;;;;;;42.00;35.75;;;;;9.82;65.53;101853.66;4978595;28;45252;-48
2021/11/15 03:59:57;;;;;;;;;46.75;39.50;;;;;9.84;65.42;101851.06;4978905;28;45208;-51
2021/11/15 04:02:27;;;;;;;;;47.50;37.50;;;;;9.82;65.47;101852.81;4978460;28;45470;-53
2021/11/15 04:04:56;;;;;;;;;42.50;37.00;;;;;9.84;65.43;101851.94;4978695;28;45315;-53
2021/11/15 04:07:39;;;;;;;;;38.00;35.00;;;;;9.84;65.51;101848.44;4978617;28;45317;-51
2021/11/15 04:10:10;;;;;;;;;40.25;33.75;;;;;9.84;65.55;101848.44;4978457;28;45271;-48
2021/11/15 04:12:36;;;;;;;;;44.75;36.25;;;;;9.84;65.42;101851.94;4978417;28;45331;-51
2021/11/15 04:15:03;;;;;;;;;41.00;36.75;;;;;9.81;65.55;101851.03;4978608;28;46202;-47
2021/11/15 04:17:28;;;;;;;;;47.25;38.50;;;;;9.83;65.49;101850.19;4978567;28;45291;-51
2021/11/15 04:19:54;;;;;;;;;40.50;33.75;;;;;9.85;65.55;101842.31;4978628;28;45453;-51
2021/11/15 04:22:20;;;;;;;;;40.00;35.00;;;;;9.86;65.64;101849.31;4978475;28;45247;-53
2021/11/15 04:24:46;;;;;;;;;44.75;35.00;;;;;9.86;65.53;101849.31;4978132;28;45436;-51
2021/11/15 04:27:11;;;;;;;;;38.00;32.50;;;;;9.87;65.58;101857.22;4978235;28;45248;-48
2021/11/15 04:29:37;;;;;;;;;46.00;37.00;;;;;9.88;65.46;101858.09;4978372;28;45281;-50
2021/11/15 04:32:04;;;;;;;;;41.50;35.25;;;;;9.87;65.59;101851.06;4978430;28;45256;-50
2021/11/15 04:34:30;;;;;;;;;54.25;39.00;;;;;9.87;65.44;101851.06;4978306;28;45343;-51
2021/11/15 04:36:55;;;;;;;;;33.75;28.25;;;;;9.87;65.61;101854.59;4978326;28;45343;-50
2021/11/15 04:39:21;;;;;;;;;48.75;38.00;;;;;9.87;65.66;101845.81;4978414;28;45280;-49
2021/11/15 04:41:47;;;;;;;;;45.50;36.25;;;;;9.86;65.38;101839.72;4958666;28;45339;-50
2021/11/15 04:44:12;;;;;;;;;46.25;36.00;;;;;9.87;65.69;101851.06;4958655;28;45600;-48
2021/11/15 04:46:37;;;;;;;;;45.00;38.00;;;;;9.87;65.65;101846.72;4972179;28;45311;-48
2021/11/15 04:49:03;;;;;;;;;41.50;35.50;;;;;9.84;65.43;101846.69;5014261;28;45269;-47
2021/11/15 04:51:28;;;;;;;;;49.50;37.75;;;;;9.82;65.42;101844.91;4984587;27;45182;-48
2021/11/15 04:53:54;;;;;;;;;47.50;36.00;;;;;9.84;65.48;101845.81;4978119;28;45339;-49
2021/11/15 04:56:20;;;;;;;;;39.50;35.00;;;;;9.84;65.45;101830.94;4977717;28;45215;-52
2021/11/15 04:58:45;;;;;;;;;42.00;35.75;;;;;9.84;65.18;101830.06;4976709;28;45175;-47
2021/11/15 05:01:11;;;;;;;;;49.50;37.00;;;;;9.84;65.68;101830.94;4958528;28;45861;-49
2021/11/15 05:03:36;;;;;;;;;41.75;36.75;;;;;9.85;65.40;101831.81;4969885;28;45302;-47
2021/11/15 05:06:03;;;;;;;;;48.75;39.00;;;;;9.83;65.52;101834.41;4978072;28;45402;-49
2021/11/15 05:08:28;;;;;;;;;39.00;33.00;;;;;9.83;65.54;101834.41;4977993;28;45594;-49
2021/11/15 05:10:54;;;;;;;;;43.50;37.00;;;;;9.84;65.83;101835.31;4977666;28;45393;-48
2021/11/15 05:13:19;;;;;;;;;47.25;38.00;;;;;9.84;65.47;101832.69;4977755;28;46263;-48
2021/11/15 05:15:45;;;;;;;;;44.50;39.00;;;;;9.83;65.86;101830.94;4977702;28;45350;-50
2021/11/15 05:18:10;;;;;;;;;51.00;39.25;;;;;9.85;65.54;101837.06;4977890;28;45298;-51
2021/11/15 05:20:36;;;;;;;;;42.50;35.75;;;;;9.82;65.62;101827.41;4977679;28;45467;-47
2021/11/15 05:23:02;;;;;;;;;45.25;37.00;;;;;9.84;65.57;101830.06;4977636;28;45703;-51
2021/11/15 05:25:28;;;;;;;;;47.25;38.25;;;;;9.83;65.58;101833.56;4977318;28;45229;-50
2021/11/15 05:27:54;;;;;;;;;42.75;37.25;;;;;9.82;65.64;101831.78;4965540;28;45386;-51
2021/11/15 05:30:20;;;;;;;;;52.50;40.75;;;;;9.83;65.56;101833.56;4957896;28;45154;-46
2021/11/15 05:32:46;;;;;;;;;46.25;36.50;;;;;9.84;65.74;101835.31;4958002;28;45307;-51
2021/11/15 05:35:12;;;;;;;;;45.50;38.25;;;;;9.84;65.76;101840.56;4957886;28;45490;-52
2021/11/15 05:37:39;;;;;;;;;44.50;38.00;;;;;9.82;66.13;101848.41;4958109;28;45456;-50
2021/11/15 05:40:06;;;;;;;;;48.50;38.25;;;;;9.84;65.49;101848.44;4957618;28;45514;-46
2021/11/15 05:42:31;;;;;;;;;44.25;38.75;;;;;9.85;65.59;101842.31;4957641;28;45424;-47
2021/11/15 05:44:57;;;;;;;;;44.50;36.00;;;;;9.86;65.68;101841.44;4957726;28;45406;-51
2021/11/15 05:47:22;;;;;;;;;47.25;38.25;;;;;9.84;65.54;101846.69;4957820;28;45449;-50
2021/11/15 05:49:48;;;;;;;;;43.25;38.00;;;;;9.86;65.62;101846.69;5026401;28;45423;-49
2021/11/15 05:52:15;;;;;;;;;50.50;40.50;;;;;9.85;65.70;101845.81;4977001;28;46037;-48
2021/11/15 05:54:40;;;;;;;;;47.00;37.25;;;;;9.86;65.62;101851.94;4976764;28;45359;-48
2021/11/15 05:57:06;;;;;;;;;51.25;38.00;;;;;9.86;65.80;101847.59;4977123;28;45170;-48
2021/11/15 05:59:31;;;;;;;;;42.00;33.50;;;;;9.86;65.75;101857.19;4976982;28;45460;-49
2021/11/15 06:01:57;;;;;;;;;42.75;35.25;;;;;9.86;65.53;101850.22;4976968;28;45913;-50
2021/11/15 06:04:22;;;;;;;;;48.25;33.25;;;;;9.86;65.55;101857.19;4976792;28;45154;-49
2021/11/15 06:06:49;;;;;;;;;42.75;36.25;;;;;9.87;65.53;101857.22;4977208;28;45232;-48
2021/11/15 06:09:15;;;;;;;;;33.25;32.50;;;;;9.85;65.69;101860.69;4976743;28;45496;-49
2021/11/15 06:11:40;;;;;;;;;37.75;34.25;;;;;9.84;65.57;101856.31;4979224;28;45315;-44
2021/11/15 06:14:05;;;;;;;;;41.00;34.25;;;;;9.85;65.74;101860.69;4979839;28;45443;-47
2021/11/15 06:16:31;;;;;;;;;43.75;36.25;;;;;9.86;65.75;101857.19;4979770;28;45557;-45
2021/11/15 06:18:56;;;;;;;;;38.50;34.00;;;;;9.86;65.75;101863.34;4979643;28;45406;-43
2021/11/15 06:21:22;;;;;;;;;36.75;33.75;;;;;9.84;65.58;101861.56;4979847;28;45224;-43
2021/11/15 06:23:47;;;;;;;;;44.25;36.50;;;;;9.84;65.53;101861.56;4979835;28;45539;-45
2021/11/15 06:26:13;;;;;;;;;37.25;31.50;;;;;9.82;65.80;101868.56;4979706;28;45431;-46
2021/11/15 06:28:39;;;;;;;;;38.75;32.75;;;;;9.80;65.76;101868.53;4979546;28;45331;-49
2021/11/15 06:31:08;;;;;;;;;34.75;31.25;;;;;9.82;65.60;101879.06;4979725;28;46200;-49
2021/11/15 06:33:34;;;;;;;;;32.50;29.25;;;;;9.80;65.72;101873.81;4978399;28;45497;-49
2021/11/15 06:35:59;;;;;;;;;42.50;32.50;;;;;9.82;65.80;101881.69;4979713;27;45311;-51
2021/11/15 06:38:25;;;;;;;;;36.50;31.75;;;;;9.81;65.55;101878.19;4979500;28;45424;-46
2021/11/15 06:40:51;;;;;;;;;40.75;31.75;;;;;9.82;65.56;101877.28;4979276;28;46345;-47
2021/11/15 06:43:16;;;;;;;;;40.00;36.00;;;;;9.81;65.82;101869.41;4977688;28;45453;-45
2021/11/15 06:45:41;;;;;;;;;35.00;31.25;;;;;9.81;65.85;101883.44;4979952;28;45308;-50
2021/11/15 06:48:07;;;;;;;;;42.00;35.50;;;;;9.79;65.67;101879.91;4975384;28;45303;-49
2021/11/15 06:50:32;;;;;;;;;39.25;33.00;;;;;9.80;65.60;101876.41;5026096;27;45953;-50
2021/11/15 06:52:57;;;;;;;;;52.00;38.75;;;;;9.81;65.72;101879.91;4979659;28;45303;-49
2021/11/15 06:55:23;;;;;;;;;35.50;30.50;;;;;9.81;65.74;101883.44;4979192;28;45376;-50
2021/11/15 06:57:50;;;;;;;;;38.25;32.25;;;;;9.82;65.51;101881.69;4979077;28;45551;-51
2021/11/15 07:00:20;;;;;;;;;38.75;33.75;;;;;9.83;65.74;101891.31;4979207;28;46443;-52
2021/11/15 07:02:48;;;;;;;;;39.00;35.00;;;;;9.84;65.63;101893.94;4979271;28;45446;-50
2021/11/15 07:05:15;;;;;;;;;46.50;37.00;;;;;9.84;65.56;101885.19;4978036;28;45271;-45
2021/11/15 07:07:42;;;;;;;;;41.50;33.00;;;;;9.76;65.84;101880.78;4979150;28;45179;-58
2021/11/15 07:10:09;;;;;;;;;40.50;34.50;;;;;9.86;65.57;101892.22;4976602;28;45431;-49
2021/11/15 07:12:35;;;;;;;;;43.00;37.50;;;;;9.86;65.75;101894.84;4970275;28;45473;-50
2021/11/15 07:15:01;;;;;;;;;37.50;34.00;;;;;9.86;65.87;101897.47;4969706;28;45244;-48
2021/11/15 07:17:27;;;;;;;;;39.25;33.50;;;;;9.87;65.75;101904.50;4972433;28;45380;-48
2021/11/15 07:19:52;;;;;;;;;43.50;36.25;;;;;9.88;65.70;101906.22;4959214;28;47493;-49
2021/11/15 07:22:17;;;;;;;;;43.25;35.75;;;;;9.89;65.74;101913.22;4971342;28;45374;-47
2021/11/15 07:24:43;;;;;;;;;37.25;33.00;;;;;9.88;65.63;101919.34;4967661;28;45411;-51
2021/11/15 07:27:08;;;;;;;;;42.50;36.50;;;;;9.89;65.53;101917.63;4966186;28;45538;-48
2021/11/15 07:29:33;;;;;;;;;41.50;34.75;;;;;9.90;65.78;101922.00;4964932;28;46140;-48
2021/11/15 07:32:00;;;;;;;;;39.50;34.50;;;;;9.89;65.52;101923.75;4971797;28;45245;-45
2021/11/15 07:34:27;;;;;;;;;36.50;32.50;;;;;9.90;65.19;101919.38;4962283;28;45738;-46
2021/11/15 07:36:54;;;;;;;;;45.75;33.00;;;;;9.90;65.74;101922.88;4970667;28;45434;-46
2021/11/15 07:39:20;;;;;;;;;40.50;35.00;;;;;9.91;65.52;101929.00;4965284;28;46141;-47
2021/11/15 07:41:45;;;;;;;;;44.25;37.00;;;;;9.92;65.58;101925.50;4965515;28;45335;-46
2021/11/15 07:44:11;;;;;;;;;49.00;37.75;;;;;9.93;65.50;101929.91;4961683;28;45377;-47
2021/11/15 07:46:36;;;;;;;;;38.75;35.00;;;;;9.93;65.45;101930.75;4977802;28;45576;-48
2021/11/15 07:49:02;;;;;;;;;34.50;32.50;;;;;9.96;65.45;101931.66;4967537;28;46196;-45
2021/11/15 07:51:27;;;;;;;;;46.25;36.00;;;;;9.91;65.83;101921.13;4975813;28;45561;-46
2021/11/15 07:53:53;;;;;;;;;47.50;39.00;;;;;9.96;65.51;101931.66;4979936;28;45388;-49
2021/11/15 07:56:18;;;;;;;;;45.75;37.75;;;;;9.94;65.90;101929.03;4978709;28;45487;-46
2021/11/15 07:58:43;;;;;;;;;49.50;38.75;;;;;9.96;65.57;101937.81;4978437;28;46072;-46
2021/11/15 08:01:09;;;;;;;;;49.25;36.00;;;;;9.99;65.73;101948.31;4978390;28;45310;-46
2021/11/15 08:03:34;;;;;;;;;40.50;34.50;;;;;9.98;65.60;101946.56;4978711;28;45228;-49
2021/11/15 08:06:00;;;;;;;;;43.25;35.00;;;;;9.96;65.68;101937.81;4978377;28;45399;-47
2021/11/15 08:08:26;;;;;;;;;43.25;36.25;;;;;10.01;65.58;101943.97;4978425;28;46155;-48
2021/11/15 08:10:51;;;;;;;;;48.00;36.25;;;;;10.01;65.76;101953.59;4979927;28;45293;-48
2021/11/15 08:13:17;;;;;;;;;45.50;37.00;;;;;10.02;65.86;101945.72;4994801;28;45361;-48
2021/11/15 08:15:43;;;;;;;;;52.75;42.00;;;;;10.04;65.73;101945.75;4976294;28;45553;-45
2021/11/15 08:18:08;;;;;;;;;48.00;39.25;;;;;10.05;65.75;101950.09;4978341;28;46142;-48
2021/11/15 08:20:38;;;;;;;;;45.75;35.25;;;;;10.06;65.67;101952.75;4977182;28;45244;-45
2021/11/15 08:23:07;;;;;;;;;44.25;36.50;;;;;10.06;65.55;101950.13;4978543;28;45242;-49
2021/11/15 08:25:38;;;;;;;;;38.75;34.75;;;;;10.08;65.63;101942.25;4975309;28;45446;-49
2021/11/15 08:28:04;;;;;;;;;46.75;36.50;;;;;10.06;65.77;101942.25;4978161;28;46150;-45
2021/11/15 08:30:30;;;;;;;;;38.00;34.50;;;;;10.11;65.61;101947.53;4978196;28;45298;-49
2021/11/15 08:32:56;;;;;;;;;36.75;32.50;;;;;10.13;65.68;101948.41;4978013;28;45166;-48
2021/11/15 08:35:24;;;;;;;;;44.25;37.00;;;;;10.13;65.72;101937.91;4978106;28;45177;-49
2021/11/15 08:37:59;;;;;;;;;42.75;35.00;;;;;10.15;65.83;101948.44;4978155;28;46209;-48
2021/11/15 08:40:25;;;;;;;;;39.25;35.00;;;;;10.13;65.76;101948.41;4977749;28;45465;-46
2021/11/15 08:42:50;;;;;;;;;43.25;35.75;;;;;10.17;65.68;101946.69;4978044;28;45369;-46
2021/11/15 08:45:17;;;;;;;;;41.75;34.00;;;;;10.19;65.51;101952.84;4980906;28;45292;-47
2021/11/15 08:47:42;;;;;;;;;37.00;34.25;;;;;10.19;65.97;101952.84;4973897;28;47324;-46
2021/11/15 08:50:08;;;;;;;;;40.25;32.00;;;;;10.20;65.92;101955.47;4971890;28;45446;-45
2021/11/15 08:52:33;;;;;;;;;37.50;34.25;;;;;10.22;65.89;101956.34;4977803;28;45426;-46
2021/11/15 08:54:58;;;;;;;;;45.25;36.25;;;;;10.21;65.54;101952.00;4977438;28;45224;-45
2021/11/15 08:57:24;;;;;;;;;49.00;37.75;;;;;10.23;65.81;101955.50;4977209;28;45344;-44
2021/11/15 08:59:53;;;;;;;;;40.75;33.75;;;;;10.26;65.68;101952.00;4977715;28;45628;-45
2021/11/15 09:02:19;;;;;;;;;42.00;35.50;;;;;10.29;65.85;101951.16;4976348;28;45545;-46
2021/11/15 09:04:44;;;;;;;;;44.75;35.75;;;;;10.30;65.86;101947.66;4976140;28;45505;-49
2021/11/15 09:07:10;;;;;;;;;41.75;35.25;;;;;10.32;65.74;101941.53;4976111;28;47238;-48
2021/11/15 09:09:36;;;;;;;;;39.50;35.25;;;;;10.33;65.68;101940.66;4972571;28;45346;-48
2021/11/15 09:12:05;;;;;;;;;39.25;33.50;;;;;10.29;65.95;101938.00;4967745;28;45384;-49
2021/11/15 09:14:31;;;;;;;;;52.00;41.75;;;;;10.37;65.72;101946.88;4976887;28;45311;-47
2021/11/15 09:16:56;;;;;;;;;51.75;38.50;;;;;10.39;65.91;101948.63;4967673;28;45373;-48
2021/11/15 09:19:22;;;;;;;;;43.25;37.00;;;;;10.38;65.98;101938.13;4973335;28;45162;-47
2021/11/15 09:21:48;;;;;;;;;44.25;38.00;;;;;10.44;65.75;101947.75;4977438;28;45172;-48
2021/11/15 09:24:14;;;;;;;;;36.50;31.00;;;;;10.44;65.96;101945.13;4977342;28;45632;-49
2021/11/15 09:26:40;;;;;;;;;41.50;34.00;;;;;10.48;65.74;101939.03;4976743;28;46273;-49
2021/11/15 09:29:07;;;;;;;;;43.25;35.00;;;;;10.47;65.71;101947.78;4977033;28;45341;-49
2021/11/15 09:31:34;;;;;;;;;41.00;33.50;;;;;10.49;65.98;101935.53;4977316;27;45323;-47
2021/11/15 09:34:00;;;;;;;;;43.75;34.75;;;;;10.50;65.93;101942.53;4972658;28;45463;-45
2021/11/15 09:36:25;;;;;;;;;47.50;35.75;;;;;10.52;65.94;101944.31;4970987;28;46751;-47
2021/11/15 09:38:57;;;;;;;;;43.00;34.50;;;;;10.53;65.98;101946.06;4977160;28;45410;-45
2021/11/15 09:41:24;;;;;;;;;47.75;38.50;;;;;10.54;65.92;101939.94;4976818;28;45350;-48
2021/11/15 09:43:50;;;;;;;;;48.25;39.25;;;;;10.57;66.00;101942.56;4976016;28;45351;-47
2021/11/15 09:46:18;;;;;;;;;39.25;34.25;;;;;10.57;65.98;101939.94;4987409;28;46281;-45
2021/11/15 09:48:46;;;;;;;;;42.50;33.25;;;;;10.60;65.77;101939.09;4973487;28;45162;-48
2021/11/15 09:51:13;;;;;;;;;44.25;38.00;;;;;10.63;65.80;101948.72;4975464;28;45408;-49
2021/11/15 09:53:39;;;;;;;;;42.00;36.00;;;;;10.59;65.60;101947.88;4980251;28;45382;-49
2021/11/15 09:56:06;;;;;;;;;36.50;32.00;;;;;10.66;66.00;101954.88;4967887;28;46978;-48
2021/11/15 09:58:32;;;;;;;;;44.00;36.50;;;;;10.66;65.84;101947.00;4980117;27;45391;-49
2021/11/15 10:00:58;;;;;;;;;37.50;32.50;;;;;10.69;65.90;101951.41;4979906;28;45299;-45
2021/11/15 10:03:25;;;;;;;;;43.25;33.25;;;;;10.71;65.95;101945.28;4980126;28;45327;-49
2021/11/15 10:05:52;;;;;;;;;44.00;37.25;;;;;10.73;65.89;101954.06;4979840;28;46836;-47
2021/11/15 10:08:17;;;;;;;;;38.75;34.75;;;;;10.76;65.97;101960.22;4980042;28;45458;-48
2021/11/15 10:10:57;;;;;;;;;41.00;35.00;;;;;10.73;65.94;101959.31;4979512;28;45275;-48
2021/11/15 10:13:29;;;;;;;;;46.75;37.00;;;;;10.77;65.78;101960.22;4973703;28;45335;-47
2021/11/15 10:16:14;;;;;;;;;46.75;37.25;;;;;10.78;65.92;101959.34;4977553;28;46400;-47
2021/11/15 10:18:42;;;;;;;;;42.75;35.75;;;;;10.80;65.83;101959.34;4976693;28;45339;-50
2021/11/15 10:21:33;;;;;;;;;41.25;35.50;;;;;10.80;65.95;101961.97;4979904;28;45375;-50
2021/11/15 10:24:09;;;;;;;;;42.00;35.00;;;;;10.81;66.02;101959.34;4977181;28;45251;-48
2021/11/15 10:26:42;;;;;;;;;40.75;35.50;;;;;10.83;65.92;101954.09;4979154;28;45540;-46
2021/11/15 10:29:14;;;;;;;;;44.25;37.00;;;;;10.83;65.80;101956.72;4979528;28;45432;-48
2021/11/15 10:31:43;;;;;;;;;49.25;36.25;;;;;10.83;65.83;101956.72;4976160;28;45553;-47
2021/11/15 10:34:14;;;;;;;;;39.75;35.25;;;;;10.84;66.00;101945.31;4979834;28;45411;-47
2021/11/15 10:36:44;;;;;;;;;45.25;36.75;;;;;10.85;65.79;101950.59;4979374;28;46050;-45
2021/11/15 10:39:10;;;;;;;;;40.75;35.50;;;;;10.85;65.81;101952.34;4979536;28;45324;-47
2021/11/15 10:41:35;;;;;;;;;43.50;35.00;;;;;10.87;65.88;101959.38;4979033;28;45484;-47
2021/11/15 10:44:01;;;;;;;;;54.25;42.25;;;;;10.88;65.67;101957.63;4979600;28;45217;-48
2021/11/15 10:46:35;;;;;;;;;45.25;35.25;;;;;10.90;66.15;101950.59;4988384;28;46120;-48
2021/11/15 10:49:04;;;;;;;;;39.75;33.25;;;;;10.91;65.75;101954.13;4977221;28;45177;-50
2021/11/15 10:51:52;;;;;;;;;41.00;35.50;;;;;10.91;65.83;101948.88;4975386;28;45489;-49
2021/11/15 10:54:44;;;;;;;;;40.75;32.25;;;;;10.92;65.94;101947.97;4979431;28;45316;-45
2021/11/15 10:57:28;;;;;;;;;44.50;35.75;;;;;10.91;66.03;101949.75;4979052;28;46116;-46
2021/11/15 11:00:11;;;;;;;;;41.75;34.75;;;;;10.91;65.89;101947.13;4979275;28;45332;-49
2021/11/15 11:02:42;;;;;;;;;48.75;37.50;;;;;10.91;65.83;101944.47;4979081;28;45244;-48
2021/11/15 11:05:19;;;;;;;;;40.75;34.00;;;;;10.91;65.56;101948.88;4979070;28;45290;-46
2021/11/15 11:07:50;;;;;;;;;42.00;35.00;;;;;10.92;65.94;101947.97;4975753;28;46275;-47
2021/11/15 11:10:21;;;;;;;;;45.75;35.25;;;;;10.91;65.91;101949.75;4978471;28;45358;-46